Time,TemperatureF,DewpointF,PressureIn,WindDirection,WindDirectionDegrees,WindSpeedMPH,WindSpeedGustMPH,Humidity,HourlyPrecipIn,Conditions,Clouds,dailyrainin,SoftwareType,DateUTC
2013-08-15 00:01:00,59.3,53.8,30.02,East,97,1.0,1.0,82,0.00,,---,0.00,VWS V14.01,2013-08-15 05:01:00,
2013-08-15 00:11:00,59.3,53.8,30.02,East,97,0.0,0.0,82,0.00,,---,0.00,VWS V14.01,2013-08-15 05:11:00,
2013-08-15 00:21:00,59.0,53.8,30.02,East,97,0.0,0.0,83,0.00,,---,0.00,VWS V14.01,2013-08-15 05:21:00,
2013-08-15 00:26:00,58.7,53.6,30.02,East,97,0.0,0.0,83,0.00,,---,0.00,VWS V14.01,2013-08-15 05:26:00,
2013-08-15 00:31:00,58.6,53.5,30.02,East,97,0.0,0.0,83,0.00,,---,0.00,VWS V14.01,2013-08-15 05:31:00,
2013-08-15 00:41:00,58.6,53.8,30.02,East,97,0.0,0.0,84,0.00,,---,0.00,VWS V14.01,2013-08-15 05:41:00,
2013-08-15 00:46:00,58.4,53.6,30.02,East,97,0.0,0.0,84,0.00,,---,0.00,VWS V14.01,2013-08-15 05:46:00,
2013-08-15 00:56:00,58.3,53.5,30.02,East,97,0.0,0.0,84,0.00,,---,0.00,VWS V14.01,2013-08-15 05:56:00,
2013-08-15 01:01:00,58.3,53.8,30.02,East,97,0.0,1.0,85,0.00,,---,0.00,VWS V14.01,2013-08-15 06:01:00,
2013-08-15 01:06:00,58.3,53.8,30.02,East,97,0.0,0.0,85,0.00,,---,0.00,VWS V14.01,2013-08-15 06:06:00,
2013-08-15 01:11:00,58.3,53.8,30.02,East,97,0.0,0.0,85,0.00,,---,0.00,VWS V14.01,2013-08-15 06:11:00,
2013-08-15 01:21:00,58.3,54.1,30.02,East,97,0.0,0.0,86,0.00,,---,0.00,VWS V14.01,2013-08-15 06:21:00,
2013-08-15 01:26:00,58.3,53.8,30.02,East,97,0.0,0.0,85,0.00,,---,0.00,VWS V14.01,2013-08-15 06:26:00,
2013-08-15 01:31:00,58.3,53.8,30.02,East,97,0.0,0.0,85,0.00,,---,0.00,VWS V14.01,2013-08-15 06:31:00,
2013-08-15 01:41:00,57.8,53.3,30.02,East,97,0.0,0.0,85,0.00,,---,0.00,VWS V14.01,2013-08-15 06:41:00,
2013-08-15 01:51:00,57.3,52.8,30.01,East,97,0.0,0.0,85,0.00,,---,0.00,VWS V14.01,2013-08-15 06:51:00,
2013-08-15 01:56:00,57.0,52.5,30.01,East,97,0.0,0.0,85,0.00,,---,0.00,VWS V14.01,2013-08-15 06:56:00,
2013-08-15 02:06:00,56.6,52.2,30.01,East,97,0.0,0.0,85,0.00,,---,0.00,VWS V14.01,2013-08-15 07:06:00,
2013-08-15 02:16:00,56.0,51.9,30.01,East,97,0.0,0.0,86,0.00,,---,0.00,VWS V14.01,2013-08-15 07:16:00,
2013-08-15 02:21:00,55.9,51.8,30.01,East,97,0.0,0.0,86,0.00,,---,0.00,VWS V14.01,2013-08-15 07:21:00,
2013-08-15 02:26:00,55.6,51.5,30.01,East,97,0.0,0.0,86,0.00,,---,0.00,VWS V14.01,2013-08-15 07:26:00,
2013-08-15 02:36:00,55.1,51.0,30.02,East,97,0.0,0.0,86,0.00,,---,0.00,VWS V14.01,2013-08-15 07:36:00,
2013-08-15 02:41:00,54.7,50.6,30.02,East,97,0.0,0.0,86,0.00,,---,0.00,VWS V14.01,2013-08-15 07:41:00,
2013-08-15 02:46:00,54.4,50.6,30.02,East,97,0.0,0.0,87,0.00,,---,0.00,VWS V14.01,2013-08-15 07:46:00,
2013-08-15 02:51:00,54.1,50.3,30.02,East,97,0.0,0.0,87,0.00,,---,0.00,VWS V14.01,2013-08-15 07:51:00,
2013-08-15 02:56:00,53.9,50.1,30.02,East,97,0.0,0.0,87,0.00,,---,0.00,VWS V14.01,2013-08-15 07:56:00,
2013-08-15 03:01:00,53.8,50.0,30.02,East,97,0.0,0.0,87,0.00,,---,0.00,VWS V14.01,2013-08-15 08:01:00,
2013-08-15 03:11:00,53.3,49.5,30.01,East,97,0.0,0.0,87,0.00,,---,0.00,VWS V14.01,2013-08-15 08:11:00,
2013-08-15 03:16:00,53.3,49.8,30.01,East,97,0.0,0.0,88,0.00,,---,0.00,VWS V14.01,2013-08-15 08:16:00,
2013-08-15 03:21:00,53.6,50.4,30.01,East,97,0.0,0.0,89,0.00,,---,0.00,VWS V14.01,2013-08-15 08:21:00,
2013-08-15 03:26:00,54.1,51.2,30.01,East,97,0.0,0.0,90,0.00,,---,0.00,VWS V14.01,2013-08-15 08:26:00,
2013-08-15 03:31:00,54.2,51.3,30.01,East,96,0.0,0.0,90,0.00,,---,0.00,VWS V14.01,2013-08-15 08:31:00,
2013-08-15 03:36:00,54.4,51.5,30.00,East,94,0.0,0.0,90,0.00,,---,0.00,VWS V14.01,2013-08-15 08:36:00,
2013-08-15 03:41:00,54.4,51.5,30.00,East,92,0.0,0.0,90,0.00,,---,0.00,VWS V14.01,2013-08-15 08:41:00,
2013-08-15 03:51:00,54.2,51.3,30.00,East,84,0.0,0.0,90,0.00,,---,0.00,VWS V14.01,2013-08-15 08:51:00,
2013-08-15 03:56:00,54.2,51.3,30.00,East,84,0.0,0.0,90,0.00,,---,0.00,VWS V14.01,2013-08-15 08:56:00,
2013-08-15 04:01:00,54.1,51.5,30.01,East,84,0.0,0.0,91,0.00,,---,0.00,VWS V14.01,2013-08-15 09:01:00,
2013-08-15 04:11:00,53.6,51.0,30.01,East,84,0.0,0.0,91,0.00,,---,0.00,VWS V14.01,2013-08-15 09:11:00,
2013-08-15 04:16:00,53.5,50.9,30.01,East,84,0.0,0.0,91,0.00,,---,0.00,VWS V14.01,2013-08-15 09:16:00,
2013-08-15 04:26:00,53.5,50.9,30.01,East,82,0.0,0.0,91,0.00,,---,0.00,VWS V14.01,2013-08-15 09:26:00,
2013-08-15 04:36:00,53.5,51.2,30.01,East,82,0.0,0.0,92,0.00,,---,0.00,VWS V14.01,2013-08-15 09:36:00,
2013-08-15 04:41:00,53.3,51.0,30.01,East,82,0.0,0.0,92,0.00,,---,0.00,VWS V14.01,2013-08-15 09:41:00,
2013-08-15 04:46:00,53.2,50.9,30.01,East,82,0.0,0.0,92,0.00,,---,0.00,VWS V14.01,2013-08-15 09:46:00,
2013-08-15 04:56:00,53.1,50.8,30.01,East,82,0.0,0.0,92,0.00,,---,0.00,VWS V14.01,2013-08-15 09:56:00,
2013-08-15 05:06:00,52.9,50.6,30.01,East,82,0.0,0.0,92,0.00,,---,0.00,VWS V14.01,2013-08-15 10:06:00,
2013-08-15 05:16:00,52.6,50.3,30.01,East,82,0.0,0.0,92,0.00,,---,0.00,VWS V14.01,2013-08-15 10:16:00,
2013-08-15 05:21:00,52.6,50.3,30.01,East,82,0.0,0.0,92,0.00,,---,0.00,VWS V14.01,2013-08-15 10:21:00,
2013-08-15 05:26:00,52.5,50.2,30.01,East,81,0.0,0.0,92,0.00,,---,0.00,VWS V14.01,2013-08-15 10:26:00,
2013-08-15 05:31:00,52.5,50.2,30.01,East,81,0.0,0.0,92,0.00,,---,0.00,VWS V14.01,2013-08-15 10:31:00,
2013-08-15 05:36:00,52.3,50.0,30.01,East,81,0.0,0.0,92,0.00,,---,0.00,VWS V14.01,2013-08-15 10:36:00,
2013-08-15 05:41:00,52.2,50.0,30.01,East,81,0.0,0.0,92,0.00,,---,0.00,VWS V14.01,2013-08-15 10:41:00,
2013-08-15 05:51:00,52.0,49.8,30.01,East,81,0.0,0.0,92,0.00,,---,0.00,VWS V14.01,2013-08-15 10:51:00,
2013-08-15 05:56:00,52.0,49.8,30.02,East,81,0.0,0.0,92,0.00,,---,0.00,VWS V14.01,2013-08-15 10:56:00,
2013-08-15 06:01:00,52.0,49.8,30.02,East,81,0.0,0.0,92,0.00,,---,0.00,VWS V14.01,2013-08-15 11:01:00,
2013-08-15 06:11:00,51.7,49.5,30.02,East,81,0.0,0.0,92,0.00,,---,0.00,VWS V14.01,2013-08-15 11:11:00,
2013-08-15 06:16:00,51.7,49.5,30.02,East,81,0.0,0.0,92,0.00,,---,0.00,VWS V14.01,2013-08-15 11:16:00,
2013-08-15 06:26:00,51.7,49.5,30.02,East,81,0.0,0.0,92,0.00,,---,0.00,VWS V14.01,2013-08-15 11:26:00,
2013-08-15 06:31:00,51.7,49.8,30.02,East,81,0.0,0.0,93,0.00,,---,0.00,VWS V14.01,2013-08-15 11:31:00,
2013-08-15 06:36:00,51.6,49.7,30.03,East,81,0.0,0.0,93,0.00,,---,0.00,VWS V14.01,2013-08-15 11:36:00,
2013-08-15 06:41:00,51.7,49.8,30.03,East,81,0.0,0.0,93,0.00,,---,0.00,VWS V14.01,2013-08-15 11:41:00,
2013-08-15 06:46:00,51.9,49.9,30.03,East,81,0.0,0.0,93,0.00,,---,0.00,VWS V14.01,2013-08-15 11:46:00,
2013-08-15 06:56:00,52.0,50.0,30.03,East,81,0.0,0.0,93,0.00,,---,0.00,VWS V14.01,2013-08-15 11:56:00,
2013-08-15 07:01:00,52.0,50.0,30.03,East,81,0.0,0.0,93,0.00,,---,0.00,VWS V14.01,2013-08-15 12:01:00,
2013-08-15 07:06:00,52.0,50.0,30.03,East,81,0.0,0.0,93,0.00,,---,0.00,VWS V14.01,2013-08-15 12:06:00,
2013-08-15 07:11:00,52.3,50.3,30.04,East,81,0.0,0.0,93,0.00,,---,0.00,VWS V14.01,2013-08-15 12:11:00,
2013-08-15 07:16:00,52.6,50.6,30.03,East,81,0.0,0.0,93,0.00,,---,0.00,VWS V14.01,2013-08-15 12:16:00,
2013-08-15 07:26:00,52.8,50.8,30.03,East,81,0.0,0.0,93,0.00,,---,0.00,VWS V14.01,2013-08-15 12:26:00,
2013-08-15 07:31:00,52.9,50.9,30.03,East,81,0.0,0.0,93,0.00,,---,0.00,VWS V14.01,2013-08-15 12:31:00,
2013-08-15 07:36:00,53.2,51.2,30.04,East,81,0.0,0.0,93,0.00,,---,0.00,VWS V14.01,2013-08-15 12:36:00,
2013-08-15 07:46:00,53.6,51.9,30.03,East,81,0.0,0.0,94,0.00,,---,0.00,VWS V14.01,2013-08-15 12:46:00,
2013-08-15 07:51:00,54.1,52.4,30.03,East,81,0.0,0.0,94,0.00,,---,0.00,VWS V14.01,2013-08-15 12:51:00,
2013-08-15 08:01:00,55.1,53.4,30.03,East,81,0.0,0.0,94,0.00,,---,0.00,VWS V14.01,2013-08-15 13:01:00,
2013-08-15 08:11:00,55.9,54.2,30.04,East,81,0.0,0.0,94,0.00,,---,0.00,VWS V14.01,2013-08-15 13:11:00,
2013-08-15 08:16:00,56.3,54.3,30.04,East,81,0.0,0.0,93,0.00,,---,0.00,VWS V14.01,2013-08-15 13:16:00,
2013-08-15 08:21:00,57.0,55.0,30.04,East,81,0.0,0.0,93,0.00,,---,0.00,VWS V14.01,2013-08-15 13:21:00,
2013-08-15 08:36:00,59.0,56.7,30.04,East,86,0.0,0.0,92,0.00,,---,0.00,VWS V14.01,2013-08-15 13:36:00,
2013-08-15 08:46:00,60.2,57.6,30.04,ESE,111,0.0,0.0,91,0.00,,---,0.00,VWS V14.01,2013-08-15 13:46:00,
2013-08-15 08:56:00,61.0,57.7,30.04,SSE,151,0.0,0.0,89,0.00,,---,0.00,VWS V14.01,2013-08-15 13:56:00,
2013-08-15 09:01:00,61.6,58.0,30.04,ESE,113,0.0,1.0,88,0.00,,---,0.00,VWS V14.01,2013-08-15 14:01:00,
2013-08-15 09:11:00,62.9,58.3,30.04,SE,140,0.0,0.0,85,0.00,,---,0.00,VWS V14.01,2013-08-15 14:11:00,
2013-08-15 09:16:00,63.4,58.5,30.04,ESE,121,0.0,0.0,84,0.00,,---,0.00,VWS V14.01,2013-08-15 14:16:00,
2013-08-15 09:21:00,64.2,58.6,30.04,ESE,106,0.0,1.0,82,0.00,,---,0.00,VWS V14.01,2013-08-15 14:21:00,
2013-08-15 09:26:00,64.8,58.5,30.03,SE,133,0.0,0.0,80,0.00,,---,0.00,VWS V14.01,2013-08-15 14:26:00,
2013-08-15 09:31:00,65.3,59.0,30.04,SE,133,0.0,0.0,80,0.00,,---,0.00,VWS V14.01,2013-08-15 14:31:00,
2013-08-15 09:36:00,65.8,58.8,30.04,SE,131,0.0,0.0,78,0.00,,---,0.00,VWS V14.01,2013-08-15 14:36:00,
2013-08-15 09:41:00,66.1,58.7,30.03,ESE,113,0.0,1.0,77,0.00,,---,0.00,VWS V14.01,2013-08-15 14:41:00,
2013-08-15 09:46:00,66.9,58.7,30.03,ESE,121,0.0,1.0,75,0.00,,---,0.00,VWS V14.01,2013-08-15 14:46:00,
2013-08-15 09:56:00,66.9,58.7,30.03,SE,145,0.0,0.0,75,0.00,,---,0.00,VWS V14.01,2013-08-15 14:56:00,
2013-08-15 10:06:00,65.8,57.7,30.04,SSE,151,0.0,0.0,75,0.00,,---,0.00,VWS V14.01,2013-08-15 15:06:00,
2013-08-15 10:11:00,65.6,57.5,30.04,SE,138,0.0,0.0,75,0.00,,---,0.00,VWS V14.01,2013-08-15 15:11:00,
2013-08-15 10:16:00,65.6,57.5,30.04,SE,136,0.0,0.0,75,0.00,,---,0.00,VWS V14.01,2013-08-15 15:16:00,
2013-08-15 10:21:00,65.6,57.5,30.04,SE,138,0.0,0.0,75,0.00,,---,0.00,VWS V14.01,2013-08-15 15:21:00,
2013-08-15 10:26:00,65.8,57.7,30.04,SE,137,0.0,0.0,75,0.00,,---,0.00,VWS V14.01,2013-08-15 15:26:00,
2013-08-15 10:31:00,65.8,58.0,30.03,SE,142,0.0,0.0,76,0.00,,---,0.00,VWS V14.01,2013-08-15 15:31:00,
2013-08-15 10:36:00,65.6,57.8,30.04,SE,135,0.0,0.0,76,0.00,,---,0.00,VWS V14.01,2013-08-15 15:36:00,
2013-08-15 10:41:00,65.6,57.5,30.04,SE,134,0.0,0.0,75,0.00,,---,0.00,VWS V14.01,2013-08-15 15:41:00,
2013-08-15 10:51:00,66.4,57.9,30.03,ESE,122,0.0,1.0,74,0.00,,---,0.00,VWS V14.01,2013-08-15 15:51:00,
2013-08-15 10:56:00,67.1,58.5,30.03,South,171,0.0,1.0,74,0.00,,---,0.00,VWS V14.01,2013-08-15 15:56:00,
2013-08-15 11:01:00,67.4,58.5,30.03,SSW,205,0.0,0.0,73,0.00,,---,0.00,VWS V14.01,2013-08-15 16:01:00,
2013-08-15 11:11:00,67.4,58.5,30.03,SW,234,0.0,0.0,73,0.00,,---,0.00,VWS V14.01,2013-08-15 16:11:00,
2013-08-15 11:16:00,67.6,58.3,30.03,SW,218,0.0,0.0,72,0.00,,---,0.00,VWS V14.01,2013-08-15 16:16:00,
2013-08-15 11:26:00,67.9,58.9,30.02,South,178,0.0,1.0,73,0.00,,---,0.00,VWS V14.01,2013-08-15 16:26:00,
2013-08-15 11:31:00,68.1,59.1,30.02,South,180,0.0,0.0,73,0.00,,---,0.00,VWS V14.01,2013-08-15 16:31:00,
2013-08-15 11:36:00,68.8,59.4,30.02,SE,140,0.0,1.0,72,0.00,,---,0.00,VWS V14.01,2013-08-15 16:36:00,
2013-08-15 11:46:00,69.6,59.0,30.01,East,101,0.0,5.0,69,0.00,,---,0.00,VWS V14.01,2013-08-15 16:46:00,
2013-08-15 11:51:00,69.8,60.0,30.01,South,182,0.0,1.0,71,0.00,,---,0.00,VWS V14.01,2013-08-15 16:51:00,
2013-08-15 12:01:00,69.4,59.2,30.02,SW,222,0.0,0.0,70,0.00,,---,0.00,VWS V14.01,2013-08-15 17:01:00,
2013-08-15 12:06:00,68.9,58.7,30.02,SSE,166,0.0,1.0,70,0.00,,---,0.00,VWS V14.01,2013-08-15 17:06:00,
2013-08-15 12:11:00,69.1,58.9,30.02,SW,233,0.0,1.0,70,0.00,,---,0.00,VWS V14.01,2013-08-15 17:11:00,
2013-08-15 12:16:00,69.9,58.9,30.01,ESE,121,1.0,3.0,68,0.00,,---,0.00,VWS V14.01,2013-08-15 17:16:00,
2013-08-15 12:21:00,70.3,59.7,30.01,South,187,0.0,1.0,69,0.00,,---,0.00,VWS V14.01,2013-08-15 17:21:00,
2013-08-15 12:31:00,69.4,59.2,30.02,SSW,203,0.0,1.0,70,0.00,,---,0.00,VWS V14.01,2013-08-15 17:31:00,
2013-08-15 12:41:00,69.4,58.8,30.01,SSW,213,0.0,1.0,69,0.00,,---,0.00,VWS V14.01,2013-08-15 17:41:00,
2013-08-15 12:46:00,69.4,58.8,30.01,WSW,237,0.0,1.0,69,0.00,,---,0.00,VWS V14.01,2013-08-15 17:46:00,
2013-08-15 12:56:00,69.4,58.8,30.01,SSW,211,0.0,1.0,69,0.00,,---,0.00,VWS V14.01,2013-08-15 17:56:00,
2013-08-15 13:01:00,69.3,59.1,30.01,SSW,196,0.0,0.0,70,0.00,,---,0.00,VWS V14.01,2013-08-15 18:01:00,
2013-08-15 13:06:00,69.4,58.8,30.01,SSE,167,0.0,1.0,69,0.00,,---,0.00,VWS V14.01,2013-08-15 18:06:00,
2013-08-15 13:11:00,69.6,59.4,30.01,South,173,0.0,0.0,70,0.00,,---,0.00,VWS V14.01,2013-08-15 18:11:00,
2013-08-15 13:16:00,69.4,58.4,30.01,SSW,198,0.0,0.0,68,0.00,,---,0.00,VWS V14.01,2013-08-15 18:16:00,
2013-08-15 13:26:00,69.6,57.8,30.01,East,92,0.0,2.0,66,0.00,,---,0.00,VWS V14.01,2013-08-15 18:26:00,
2013-08-15 13:31:00,69.9,58.5,30.01,SE,130,1.0,3.0,67,0.00,,---,0.00,VWS V14.01,2013-08-15 18:31:00,
2013-08-15 13:36:00,70.3,58.4,30.01,SW,236,0.0,2.0,66,0.00,,---,0.00,VWS V14.01,2013-08-15 18:36:00,
2013-08-15 13:41:00,70.3,58.0,30.01,ESE,121,1.0,1.0,65,0.00,,---,0.00,VWS V14.01,2013-08-15 18:41:00,
2013-08-15 13:46:00,70.4,58.1,30.01,WSW,251,0.0,1.0,65,0.00,,---,0.00,VWS V14.01,2013-08-15 18:46:00,
2013-08-15 13:51:00,70.9,58.6,30.00,ESE,103,1.0,1.0,65,0.00,,---,0.00,VWS V14.01,2013-08-15 18:51:00,
2013-08-15 13:56:00,71.3,58.9,30.00,East,92,0.0,2.0,65,0.00,,---,0.00,VWS V14.01,2013-08-15 18:56:00,
2013-08-15 14:01:00,71.6,59.2,30.00,SSW,209,0.0,0.0,65,0.00,,---,0.00,VWS V14.01,2013-08-15 19:01:00,
2013-08-15 14:11:00,71.5,58.3,30.01,SSW,209,0.0,5.0,63,0.00,,---,0.00,VWS V14.01,2013-08-15 19:11:00,
2013-08-15 14:16:00,71.5,58.3,30.00,South,169,0.0,2.0,63,0.00,,---,0.00,VWS V14.01,2013-08-15 19:16:00,
2013-08-15 14:21:00,71.8,58.5,30.00,SSW,199,3.0,6.0,63,0.00,,---,0.00,VWS V14.01,2013-08-15 19:21:00,
2013-08-15 14:31:00,71.8,58.1,30.00,SE,126,1.0,3.0,62,0.00,,---,0.00,VWS V14.01,2013-08-15 19:31:00,
2013-08-15 14:36:00,71.5,57.8,30.00,ENE,74,0.0,1.0,62,0.00,,---,0.00,VWS V14.01,2013-08-15 19:36:00,
2013-08-15 14:41:00,71.3,57.6,30.00,SSW,194,0.0,5.0,62,0.00,,---,0.00,VWS V14.01,2013-08-15 19:41:00,
2013-08-15 14:46:00,71.5,58.3,30.00,SW,219,1.0,5.0,63,0.00,,---,0.00,VWS V14.01,2013-08-15 19:46:00,
2013-08-15 14:51:00,71.6,57.9,30.00,SSW,208,0.0,1.0,62,0.00,,---,0.00,VWS V14.01,2013-08-15 19:51:00,
2013-08-15 14:56:00,71.5,57.4,30.00,ESE,115,0.0,3.0,61,0.00,,---,0.00,VWS V14.01,2013-08-15 19:56:00,
2013-08-15 15:06:00,71.8,57.2,29.99,ESE,104,0.0,5.0,60,0.00,,---,0.00,VWS V14.01,2013-08-15 20:06:00,
2013-08-15 15:11:00,72.3,58.1,29.99,SE,133,0.0,6.0,61,0.00,,---,0.00,VWS V14.01,2013-08-15 20:11:00,
2013-08-15 15:16:00,72.3,57.7,29.99,ESE,121,2.0,7.0,60,0.00,,---,0.00,VWS V14.01,2013-08-15 20:16:00,
2013-08-15 15:21:00,72.3,58.1,29.99,SSE,158,0.0,5.0,61,0.00,,---,0.00,VWS V14.01,2013-08-15 20:21:00,
2013-08-15 15:31:00,72.7,56.6,29.99,ESE,119,0.0,2.0,57,0.00,,---,0.00,VWS V14.01,2013-08-15 20:31:00,
2013-08-15 15:36:00,72.8,57.7,29.99,South,178,0.0,3.0,59,0.00,,---,0.00,VWS V14.01,2013-08-15 20:36:00,
2013-08-15 15:41:00,72.7,56.1,29.99,ESE,107,0.0,10.0,56,0.00,,---,0.00,VWS V14.01,2013-08-15 20:41:00,
2013-08-15 15:46:00,72.5,55.9,29.99,SE,124,0.0,9.0,56,0.00,,---,0.00,VWS V14.01,2013-08-15 20:46:00,
2013-08-15 15:51:00,72.7,56.1,29.99,SE,128,9.0,9.0,56,0.00,,---,0.00,VWS V14.01,2013-08-15 20:51:00,
2013-08-15 15:56:00,73.0,56.9,29.99,WSW,256,0.0,11.0,57,0.00,,---,0.00,VWS V14.01,2013-08-15 20:56:00,
2013-08-15 16:01:00,73.9,58.2,29.98,ESE,121,0.0,2.0,58,0.00,,---,0.00,VWS V14.01,2013-08-15 21:01:00,
2013-08-15 16:11:00,73.9,56.7,29.98,South,181,0.0,3.0,55,0.00,,---,0.00,VWS V14.01,2013-08-15 21:11:00,
2013-08-15 16:16:00,73.2,55.6,29.98,ESE,109,0.0,7.0,54,0.00,,---,0.00,VWS V14.01,2013-08-15 21:16:00,
2013-08-15 16:31:00,72.5,54.9,29.98,SSW,200,0.0,8.0,54,0.00,,---,0.00,VWS V14.01,2013-08-15 21:31:00,
2013-08-15 16:41:00,73.3,55.7,29.98,East,81,1.0,4.0,54,0.00,,---,0.00,VWS V14.01,2013-08-15 21:41:00,
2013-08-15 16:46:00,73.7,57.0,29.98,East,82,0.0,7.0,56,0.00,,---,0.00,VWS V14.01,2013-08-15 21:46:00,
2013-08-15 16:51:00,73.9,56.2,29.98,SSW,197,0.0,1.0,54,0.00,,---,0.00,VWS V14.01,2013-08-15 21:51:00,
2013-08-15 16:56:00,74.2,56.5,29.98,South,176,2.0,4.0,54,0.00,,---,0.00,VWS V14.01,2013-08-15 21:56:00,
2013-08-15 17:01:00,74.0,55.8,29.98,NE,56,1.0,2.0,53,0.00,,---,0.00,VWS V14.01,2013-08-15 22:01:00,
2013-08-15 17:11:00,73.9,55.7,29.98,WSW,238,0.0,2.0,53,0.00,,---,0.00,VWS V14.01,2013-08-15 22:11:00,
2013-08-15 17:16:00,73.7,55.5,29.98,SSW,209,0.0,2.0,53,0.00,,---,0.00,VWS V14.01,2013-08-15 22:16:00,
2013-08-15 17:26:00,72.8,55.7,29.99,South,182,0.0,2.0,55,0.00,,---,0.00,VWS V14.01,2013-08-15 22:26:00,
2013-08-15 17:31:00,72.3,54.7,29.99,ESE,117,0.0,4.0,54,0.00,,---,0.00,VWS V14.01,2013-08-15 22:31:00,
2013-08-15 17:36:00,72.0,55.5,29.99,SW,217,0.0,2.0,56,0.00,,---,0.00,VWS V14.01,2013-08-15 22:36:00,
2013-08-15 17:46:00,72.0,56.0,29.99,South,179,0.0,3.0,57,0.00,,---,0.00,VWS V14.01,2013-08-15 22:46:00,
2013-08-15 17:51:00,72.0,56.0,29.99,South,178,0.0,0.0,57,0.00,,---,0.00,VWS V14.01,2013-08-15 22:51:00,
2013-08-15 17:56:00,72.0,56.0,29.99,SSE,155,0.0,1.0,57,0.00,,---,0.00,VWS V14.01,2013-08-15 22:56:00,
2013-08-15 18:06:00,71.6,54.1,29.99,East,100,0.0,3.0,54,0.00,,---,0.00,VWS V14.01,2013-08-15 23:06:00,
2013-08-15 18:16:00,70.9,54.9,30.00,South,177,0.0,0.0,57,0.00,,---,0.00,VWS V14.01,2013-08-15 23:16:00,
2013-08-15 18:21:00,70.8,55.3,30.00,South,189,0.0,0.0,58,0.00,,---,0.00,VWS V14.01,2013-08-15 23:21:00,
2013-08-15 18:26:00,70.6,54.6,30.00,SE,129,0.0,2.0,57,0.00,,---,0.00,VWS V14.01,2013-08-15 23:26:00,
2013-08-15 18:31:00,70.8,54.8,30.00,SSW,196,0.0,1.0,57,0.00,,---,0.00,VWS V14.01,2013-08-15 23:31:00,
2013-08-15 18:41:00,70.9,55.4,30.00,SSW,198,0.0,1.0,58,0.00,,---,0.00,VWS V14.01,2013-08-15 23:41:00,
2013-08-15 18:46:00,70.8,55.8,30.00,SW,228,0.0,0.0,59,0.00,,---,0.00,VWS V14.01,2013-08-15 23:46:00,
2013-08-15 18:51:00,70.6,56.5,30.00,SW,224,0.0,0.0,61,0.00,,---,0.00,VWS V14.01,2013-08-15 23:51:00,
2013-08-15 19:01:00,69.9,57.2,30.00,SW,225,0.0,0.0,64,0.00,,---,0.00,VWS V14.01,2013-08-16 00:01:00,
2013-08-15 19:06:00,69.8,57.5,30.00,SW,219,0.0,0.0,65,0.00,,---,0.00,VWS V14.01,2013-08-16 00:06:00,
2013-08-15 19:11:00,69.4,57.1,30.00,SW,221,0.0,1.0,65,0.00,,---,0.00,VWS V14.01,2013-08-16 00:11:00,
2013-08-15 19:16:00,68.9,57.1,30.00,SW,229,0.0,1.0,66,0.00,,---,0.00,VWS V14.01,2013-08-16 00:16:00,
2013-08-15 19:21:00,68.6,57.2,30.00,SW,232,0.0,1.0,67,0.00,,---,0.00,VWS V14.01,2013-08-16 00:21:00,
2013-08-15 19:26:00,68.3,57.3,30.00,SW,232,0.0,0.0,68,0.00,,---,0.00,VWS V14.01,2013-08-16 00:26:00,
2013-08-15 19:31:00,67.9,57.4,30.00,SW,236,0.0,0.0,69,0.00,,---,0.00,VWS V14.01,2013-08-16 00:31:00,
2013-08-15 19:46:00,66.8,57.5,29.99,SW,236,0.0,0.0,72,0.00,,---,0.00,VWS V14.01,2013-08-16 00:46:00,
2013-08-15 19:51:00,66.4,57.5,30.00,SW,236,0.0,0.0,73,0.00,,---,0.00,VWS V14.01,2013-08-16 00:51:00,
2013-08-15 20:01:00,65.6,57.5,30.00,SW,236,0.0,0.0,75,0.00,,---,0.00,VWS V14.01,2013-08-16 01:01:00,
2013-08-15 20:11:00,64.8,57.1,29.99,SW,236,0.0,0.0,76,0.00,,---,0.00,VWS V14.01,2013-08-16 01:11:00,
2013-08-15 20:16:00,64.5,57.1,29.99,SW,236,0.0,0.0,77,0.00,,---,0.00,VWS V14.01,2013-08-16 01:16:00,
2013-08-15 20:21:00,64.0,56.7,30.00,SW,236,0.0,0.0,77,0.00,,---,0.00,VWS V14.01,2013-08-16 01:21:00,
2013-08-15 20:31:00,63.1,56.5,30.00,SW,236,0.0,0.0,79,0.00,,---,0.00,VWS V14.01,2013-08-16 01:31:00,
2013-08-15 20:41:00,62.1,55.9,30.00,SW,236,0.0,0.0,80,0.00,,---,0.00,VWS V14.01,2013-08-16 01:41:00,
2013-08-15 20:46:00,61.8,55.9,30.00,SW,236,0.0,0.0,81,0.00,,---,0.00,VWS V14.01,2013-08-16 01:46:00,
2013-08-15 20:56:00,61.3,55.1,30.02,SW,236,0.0,0.0,80,0.00,,---,0.00,VWS V14.01,2013-08-16 01:56:00,
2013-08-15 21:01:00,60.9,55.0,30.02,SW,236,0.0,0.0,81,0.00,,---,0.00,VWS V14.01,2013-08-16 02:01:00,
2013-08-15 21:06:00,60.5,54.7,30.02,SW,236,0.0,0.0,81,0.00,,---,0.00,VWS V14.01,2013-08-16 02:06:00,
2013-08-15 21:11:00,60.2,54.7,30.02,SW,236,0.0,0.0,82,0.00,,---,0.00,VWS V14.01,2013-08-16 02:11:00,
2013-08-15 21:16:00,60.1,54.9,30.02,SW,236,0.0,0.0,83,0.00,,---,0.00,VWS V14.01,2013-08-16 02:16:00,
2013-08-15 21:21:00,59.9,54.7,30.03,SW,236,0.0,0.0,83,0.00,,---,0.00,VWS V14.01,2013-08-16 02:21:00,
2013-08-15 21:26:00,59.9,54.7,30.03,SW,236,0.0,0.0,83,0.00,,---,0.00,VWS V14.01,2013-08-16 02:26:00,
2013-08-15 21:31:00,59.8,54.6,30.03,SW,236,0.0,0.0,83,0.00,,---,0.00,VWS V14.01,2013-08-16 02:31:00,
2013-08-15 21:41:00,59.5,54.7,30.04,SW,236,0.0,0.0,84,0.00,,---,0.00,VWS V14.01,2013-08-16 02:41:00,
2013-08-15 21:51:00,59.2,54.7,30.04,SW,236,0.0,0.0,85,0.00,,---,0.00,VWS V14.01,2013-08-16 02:51:00,
2013-08-15 21:56:00,59.0,54.5,30.05,SW,236,0.0,0.0,85,0.00,,---,0.00,VWS V14.01,2013-08-16 02:56:00,
2013-08-15 22:01:00,58.7,54.2,30.05,SW,236,0.0,0.0,85,0.00,,---,0.00,VWS V14.01,2013-08-16 03:01:00,
2013-08-15 22:06:00,58.6,54.1,30.05,SW,236,0.0,0.0,85,0.00,,---,0.00,VWS V14.01,2013-08-16 03:06:00,
2013-08-15 22:16:00,58.3,54.1,30.05,SW,236,0.0,0.0,86,0.00,,---,0.00,VWS V14.01,2013-08-16 03:16:00,
2013-08-15 22:21:00,58.1,53.9,30.05,SW,236,0.0,0.0,86,0.00,,---,0.00,VWS V14.01,2013-08-16 03:21:00,
2013-08-15 22:31:00,58.0,54.2,30.05,SW,236,0.0,0.0,87,0.00,,---,0.00,VWS V14.01,2013-08-16 03:31:00,
2013-08-15 22:36:00,57.8,54.0,30.05,SW,236,0.0,0.0,87,0.00,,---,0.00,VWS V14.01,2013-08-16 03:36:00,
2013-08-15 22:41:00,57.6,53.8,30.05,SW,236,0.0,0.0,87,0.00,,---,0.00,VWS V14.01,2013-08-16 03:41:00,
2013-08-15 22:46:00,57.5,53.7,30.05,SW,236,0.0,0.0,87,0.00,,---,0.00,VWS V14.01,2013-08-16 03:46:00,
2013-08-15 22:51:00,57.3,53.5,30.05,SW,236,0.0,0.0,87,0.00,,---,0.00,VWS V14.01,2013-08-16 03:51:00,
2013-08-15 22:56:00,57.2,53.4,30.05,SW,236,0.0,0.0,87,0.00,,---,0.00,VWS V14.01,2013-08-16 03:56:00,
2013-08-15 23:01:00,57.0,53.2,30.05,SW,236,0.0,0.0,87,0.00,,---,0.00,VWS V14.01,2013-08-16 04:01:00,
2013-08-15 23:06:00,56.9,53.1,30.05,SW,236,0.0,0.0,87,0.00,,---,0.00,VWS V14.01,2013-08-16 04:06:00,
2013-08-15 23:11:00,56.7,52.9,30.05,WSW,237,0.0,0.0,87,0.00,,---,0.00,VWS V14.01,2013-08-16 04:11:00,
2013-08-15 23:16:00,56.6,52.8,30.05,WSW,238,0.0,0.0,87,0.00,,---,0.00,VWS V14.01,2013-08-16 04:16:00,
2013-08-15 23:21:00,56.5,53.0,30.05,WSW,238,0.0,0.0,88,0.00,,---,0.00,VWS V14.01,2013-08-16 04:21:00,
2013-08-15 23:26:00,56.5,53.0,30.05,WSW,240,0.0,0.0,88,0.00,,---,0.00,VWS V14.01,2013-08-16 04:26:00,
2013-08-15 23:31:00,56.5,53.0,30.05,WSW,241,0.0,0.0,88,0.00,,---,0.00,VWS V14.01,2013-08-16 04:31:00,
2013-08-15 23:36:00,56.5,53.3,30.05,WSW,241,0.0,0.0,89,0.00,,---,0.00,VWS V14.01,2013-08-16 04:36:00,
2013-08-15 23:46:00,56.5,53.3,30.05,WSW,241,0.0,0.0,89,0.00,,---,0.00,VWS V14.01,2013-08-16 04:46:00,
2013-08-15 23:51:00,56.3,53.1,30.05,WSW,241,0.0,0.0,89,0.00,,---,0.00,VWS V14.01,2013-08-16 04:51:00,